createdAt,value
2018-12-13T00:00:29.402Z,86
2018-12-13T00:01:28.958Z,86
2018-12-13T00:02:29.055Z,86
2018-12-13T00:03:29.034Z,87
2018-12-13T00:04:29.324Z,87
2018-12-13T00:05:29.436Z,87
2018-12-13T00:06:33.211Z,87
2018-12-13T00:07:28.961Z,87
2018-12-13T00:08:28.979Z,87
2018-12-13T00:09:29.202Z,87
2018-12-13T00:10:29.219Z,87
2018-12-13T00:11:29.452Z,87
2018-12-13T00:12:29.184Z,87
2018-12-13T00:13:29.023Z,87
2018-12-13T00:14:29.268Z,87
2018-12-13T00:15:29.539Z,87
2018-12-13T00:16:29.243Z,87
2018-12-13T00:17:29.397Z,87
2018-12-13T00:18:28.994Z,87
2018-12-13T00:19:29.429Z,87
2018-12-13T00:20:29.523Z,87
2018-12-13T00:21:29.850Z,87
2018-12-13T00:22:29.260Z,87
2018-12-13T00:23:29.029Z,87
2018-12-13T00:24:29.240Z,87
2018-12-13T00:25:29.444Z,87
2018-12-13T00:26:29.819Z,87
2018-12-13T00:27:29.223Z,87
2018-12-13T00:28:29.462Z,87
2018-12-13T00:29:29.022Z,87
2018-12-13T00:30:29.301Z,87
2018-12-13T00:31:29.462Z,87
2018-12-13T00:32:29.219Z,87
2018-12-13T00:33:29.079Z,87
2018-12-13T00:34:29.079Z,87
2018-12-13T00:35:29.282Z,87
2018-12-13T00:36:29.231Z,88
2018-12-13T00:37:29.296Z,88
2018-12-13T00:38:30.177Z,88
2018-12-13T00:39:29.529Z,88
2018-12-13T00:40:29.040Z,88
2018-12-13T00:41:29.015Z,88
2018-12-13T00:42:29.061Z,88
2018-12-13T00:43:29.066Z,88
2018-12-13T00:44:29.016Z,88
2018-12-13T00:45:29.015Z,88
2018-12-13T00:46:29.096Z,88
2018-12-13T00:47:29.243Z,88
2018-12-13T00:48:29.501Z,88
2018-12-13T00:49:29.048Z,88
2018-12-13T00:50:29.079Z,88
2018-12-13T00:51:29.066Z,88
2018-12-13T00:52:29.068Z,88
2018-12-13T00:53:29.064Z,88
2018-12-13T00:54:29.227Z,88
2018-12-13T00:55:29.507Z,88
2018-12-13T00:56:29.258Z,88
2018-12-13T00:57:29.303Z,88
2018-12-13T00:58:29.025Z,88
2018-12-13T00:59:29.044Z,88
2018-12-13T01:00:29.110Z,88
2018-12-13T01:01:29.039Z,88
2018-12-13T01:02:29.080Z,88
2018-12-13T01:03:29.069Z,88
2018-12-13T01:04:29.022Z,88
2018-12-13T01:05:29.072Z,88
2018-12-13T01:06:29.120Z,88
2018-12-13T01:07:29.497Z,88
2018-12-13T01:08:29.509Z,88
2018-12-13T01:09:29.251Z,88
2018-12-13T01:10:29.087Z,88
2018-12-13T01:11:29.061Z,88
2018-12-13T01:12:29.075Z,88
2018-12-13T01:13:29.042Z,88
2018-12-13T01:14:29.534Z,88
2018-12-13T01:15:29.117Z,88
2018-12-13T01:16:29.105Z,88
2018-12-13T01:17:29.269Z,88
2018-12-13T01:18:29.640Z,88
2018-12-13T01:19:29.251Z,88
2018-12-13T01:20:29.100Z,88
2018-12-13T01:21:29.110Z,88
2018-12-13T01:22:29.341Z,88
2018-12-13T01:23:29.364Z,88
2018-12-13T01:24:29.083Z,88
2018-12-13T01:25:29.337Z,88
2018-12-13T01:26:29.402Z,88
2018-12-13T01:27:29.030Z,88
2018-12-13T01:28:29.108Z,88
2018-12-13T01:29:29.083Z,88
2018-12-13T01:30:29.118Z,88
2018-12-13T01:31:29.112Z,88
2018-12-13T01:32:29.086Z,89
2018-12-13T01:33:29.556Z,89
2018-12-13T01:34:29.592Z,89
2018-12-13T01:35:29.135Z,89
2018-12-13T01:36:29.160Z,89
2018-12-13T01:37:29.135Z,89
2018-12-13T01:38:29.325Z,89
2018-12-13T01:39:29.355Z,89
2018-12-13T01:40:29.105Z,89
2018-12-13T01:41:29.617Z,89
2018-12-13T01:42:29.336Z,89
2018-12-13T01:43:29.108Z,89
2018-12-13T01:44:29.131Z,89
2018-12-13T01:45:29.573Z,89
2018-12-13T01:46:29.624Z,89
2018-12-13T01:47:29.178Z,89
2018-12-13T01:48:29.366Z,89
2018-12-13T01:49:29.143Z,89
2018-12-13T01:50:29.164Z,89
2018-12-13T01:51:29.619Z,89
2018-12-13T01:52:29.606Z,89
2018-12-13T01:53:29.160Z,89
2018-12-13T01:54:29.604Z,89
2018-12-13T01:55:29.173Z,89
2018-12-13T01:56:29.422Z,89
2018-12-13T01:57:31.295Z,89
2018-12-13T01:58:29.741Z,89
2018-12-13T01:59:29.179Z,89
2018-12-13T02:00:29.205Z,89
2018-12-13T02:01:29.180Z,89
2018-12-13T02:02:29.174Z,89
2018-12-13T02:03:29.136Z,89
2018-12-13T02:04:29.196Z,89
2018-12-13T02:05:29.658Z,89
2018-12-13T02:06:29.222Z,89
2018-12-13T02:07:29.179Z,89
2018-12-13T02:08:29.170Z,89
2018-12-13T02:09:29.583Z,89
2018-12-13T02:10:29.223Z,89
2018-12-13T02:11:29.640Z,89
2018-12-13T02:12:29.341Z,89
2018-12-13T02:13:29.226Z,89
2018-12-13T02:14:29.156Z,89
2018-12-13T02:15:29.213Z,89
2018-12-13T02:16:29.674Z,89
2018-12-13T02:17:29.586Z,89
2018-12-13T02:18:29.434Z,89
2018-12-13T02:19:29.196Z,89
2018-12-13T02:20:29.412Z,89
2018-12-13T02:21:29.247Z,89
2018-12-13T02:22:29.478Z,89
2018-12-13T02:23:29.189Z,89
2018-12-13T02:24:29.212Z,89
2018-12-13T02:25:29.182Z,89
2018-12-13T02:26:29.641Z,89
2018-12-13T02:27:29.209Z,89
2018-12-13T02:28:29.244Z,89
2018-12-13T02:29:29.672Z,89
2018-12-13T02:30:29.440Z,89
2018-12-13T02:31:29.243Z,89
2018-12-13T02:32:29.185Z,89
2018-12-13T02:33:29.695Z,89
2018-12-13T02:34:29.654Z,89
2018-12-13T02:35:29.424Z,89
2018-12-13T02:36:29.426Z,89
2018-12-13T02:37:29.449Z,89
2018-12-13T02:38:29.273Z,89
2018-12-13T02:39:29.691Z,89
2018-12-13T02:40:29.438Z,89
2018-12-13T02:41:31.851Z,89
2018-12-13T02:42:29.740Z,89
2018-12-13T02:43:29.674Z,89
2018-12-13T02:44:29.276Z,89
2018-12-13T02:45:29.241Z,89
2018-12-13T02:46:29.700Z,89
2018-12-13T02:47:29.303Z,89
2018-12-13T02:48:29.521Z,89
2018-12-13T02:49:29.775Z,89
2018-12-13T02:50:29.427Z,89
2018-12-13T02:51:29.678Z,89
2018-12-13T02:52:29.305Z,89
2018-12-13T02:53:29.704Z,89
2018-12-13T02:54:29.485Z,89
2018-12-13T02:55:29.440Z,89
2018-12-13T02:56:29.454Z,89
2018-12-13T02:57:29.484Z,89
2018-12-13T02:58:29.474Z,89
2018-12-13T02:59:29.243Z,89
2018-12-13T03:00:29.257Z,89
2018-12-13T03:01:29.530Z,89
2018-12-13T03:02:29.503Z,89
2018-12-13T03:03:29.699Z,89
2018-12-13T03:04:29.267Z,89
2018-12-13T03:05:29.266Z,89
2018-12-13T03:06:29.271Z,89
2018-12-13T03:07:29.721Z,89
2018-12-13T03:08:29.469Z,89
2018-12-13T03:09:29.726Z,89
2018-12-13T03:10:29.543Z,89
2018-12-13T03:11:29.780Z,89
2018-12-13T03:12:29.580Z,89
2018-12-13T03:13:29.292Z,89
2018-12-13T03:14:29.349Z,89
2018-12-13T03:15:29.276Z,89
2018-12-13T03:16:29.278Z,89
2018-12-13T03:17:29.276Z,89
2018-12-13T03:18:29.337Z,89
2018-12-13T03:19:29.507Z,89
2018-12-13T03:20:29.313Z,89
2018-12-13T03:21:29.573Z,89
2018-12-13T03:22:29.306Z,89
2018-12-13T03:23:29.337Z,89
2018-12-13T03:24:29.391Z,89
2018-12-13T03:25:29.343Z,89
2018-12-13T03:26:29.614Z,89
2018-12-13T03:27:29.807Z,89
2018-12-13T03:28:29.369Z,89
2018-12-13T03:29:29.548Z,89
2018-12-13T03:30:29.786Z,89
2018-12-13T03:31:29.382Z,89
2018-12-13T03:32:29.398Z,89
2018-12-13T03:33:29.805Z,89
2018-12-13T03:34:29.374Z,89
2018-12-13T03:35:29.803Z,89
2018-12-13T03:36:29.513Z,89
2018-12-13T03:37:29.769Z,89
2018-12-13T03:38:29.542Z,89
2018-12-13T03:39:29.353Z,89
2018-12-13T03:40:30.026Z,89
2018-12-13T03:41:29.353Z,89
2018-12-13T03:42:29.373Z,89
2018-12-13T03:43:29.511Z,89
2018-12-13T03:44:29.818Z,89
2018-12-13T03:45:29.765Z,89
2018-12-13T03:46:29.542Z,89
2018-12-13T03:47:29.334Z,89
2018-12-13T03:48:29.798Z,89
2018-12-13T03:49:29.392Z,89
2018-12-13T03:50:50.051Z,89
2018-12-13T03:51:29.370Z,89
2018-12-13T03:52:29.831Z,89
2018-12-13T03:53:29.557Z,89
2018-12-13T03:54:29.879Z,89
2018-12-13T03:55:29.368Z,89
2018-12-13T03:56:29.869Z,88
2018-12-13T03:57:29.593Z,88
2018-12-13T03:58:29.362Z,88
2018-12-13T03:59:29.352Z,88
2018-12-13T04:00:29.825Z,88
2018-12-13T04:01:29.808Z,88
2018-12-13T04:02:30.153Z,88
2018-12-13T04:03:29.366Z,88
2018-12-13T04:04:29.584Z,88
2018-12-13T04:05:29.333Z,88
2018-12-13T04:06:29.392Z,88
2018-12-13T04:07:29.716Z,88
2018-12-13T04:08:29.409Z,88
2018-12-13T04:09:29.389Z,88
2018-12-13T04:10:29.824Z,88
2018-12-13T04:11:29.376Z,88
2018-12-13T04:12:29.604Z,88
2018-12-13T04:13:29.429Z,88
2018-12-13T04:14:29.417Z,88
2018-12-13T04:15:29.389Z,88
2018-12-13T04:16:29.706Z,88
2018-12-13T04:17:29.608Z,88
2018-12-13T04:18:29.890Z,88
2018-12-13T04:19:29.586Z,88
2018-12-13T04:20:29.372Z,88
2018-12-13T04:21:29.420Z,88
2018-12-13T04:22:29.862Z,88
2018-12-13T04:23:29.887Z,88
2018-12-13T04:24:29.644Z,88
2018-12-13T04:25:29.584Z,88
2018-12-13T04:26:29.387Z,88
2018-12-13T04:27:29.642Z,88
2018-12-13T04:28:29.616Z,88
2018-12-13T04:29:29.445Z,88
2018-12-13T04:30:29.406Z,88
2018-12-13T04:31:29.420Z,88
2018-12-13T04:32:29.418Z,88
2018-12-13T04:33:29.380Z,88
2018-12-13T04:34:29.408Z,88
2018-12-13T04:35:29.892Z,88
2018-12-13T04:36:29.415Z,88
2018-12-13T04:37:35.110Z,88
2018-12-13T04:38:29.442Z,88
2018-12-13T04:39:29.421Z,88
2018-12-13T04:40:29.428Z,88
2018-12-13T04:41:29.979Z,88
2018-12-13T04:42:29.622Z,88
2018-12-13T04:43:29.454Z,88
2018-12-13T04:44:29.451Z,88
2018-12-13T04:45:29.918Z,88
2018-12-13T04:46:29.923Z,88
2018-12-13T04:47:29.894Z,88
2018-12-13T04:48:29.447Z,88
2018-12-13T04:49:29.419Z,88
2018-12-13T04:50:29.728Z,88
2018-12-13T04:51:29.432Z,88
2018-12-13T04:52:29.475Z,88
2018-12-13T04:53:29.483Z,88
2018-12-13T04:54:29.719Z,88
2018-12-13T04:55:29.939Z,88
2018-12-13T04:56:29.944Z,88
2018-12-13T04:57:29.452Z,88
2018-12-13T04:58:29.465Z,88
2018-12-13T04:59:29.947Z,88
2018-12-13T05:00:29.479Z,88
2018-12-13T05:01:29.718Z,88
2018-12-13T05:02:29.710Z,88
2018-12-13T05:03:29.693Z,88
2018-12-13T05:04:29.701Z,88
2018-12-13T05:05:29.475Z,88
2018-12-13T05:06:29.472Z,88
2018-12-13T05:07:30.440Z,88
2018-12-13T05:08:29.935Z,88
2018-12-13T05:09:29.560Z,88
2018-12-13T05:10:29.660Z,88
2018-12-13T05:11:29.917Z,88
2018-12-13T05:12:29.527Z,88
2018-12-13T05:13:29.474Z,88
2018-12-13T05:14:29.703Z,88
2018-12-13T05:15:29.506Z,88
2018-12-13T05:16:29.421Z,88
2018-12-13T05:17:29.447Z,88
2018-12-13T05:18:29.463Z,88
2018-12-13T05:19:29.578Z,88
2018-12-13T05:20:29.511Z,88
2018-12-13T05:21:29.940Z,88
2018-12-13T05:22:29.512Z,88
2018-12-13T05:23:29.518Z,88
2018-12-13T05:24:30.942Z,88
2018-12-13T05:25:29.685Z,88
2018-12-13T05:26:29.504Z,88
2018-12-13T05:27:29.898Z,88
2018-12-13T05:28:29.705Z,88
2018-12-13T05:29:29.449Z,88
2018-12-13T05:30:29.670Z,88
2018-12-13T05:31:29.536Z,88
2018-12-13T05:32:29.756Z,88
2018-12-13T05:33:30.034Z,88
2018-12-13T05:34:30.280Z,88
2018-12-13T05:35:29.532Z,88
2018-12-13T05:36:29.516Z,88
2018-12-13T05:37:29.484Z,88
2018-12-13T05:38:29.974Z,88
2018-12-13T05:39:29.997Z,88
2018-12-13T05:40:29.970Z,88
2018-12-13T05:41:29.561Z,88
2018-12-13T05:42:29.534Z,88
2018-12-13T05:43:30.005Z,88
2018-12-13T05:44:30.007Z,88
2018-12-13T05:45:29.553Z,88
2018-12-13T05:46:30.007Z,88
2018-12-13T05:47:29.763Z,88
2018-12-13T05:48:29.502Z,88
2018-12-13T05:49:29.525Z,88
2018-12-13T05:50:29.543Z,88
2018-12-13T05:51:29.521Z,88
2018-12-13T05:52:29.537Z,88
2018-12-13T05:53:29.535Z,88
2018-12-13T05:54:29.994Z,88
2018-12-13T05:55:30.053Z,88
2018-12-13T05:56:29.584Z,88
2018-12-13T05:57:29.667Z,88
2018-12-13T05:58:29.811Z,88
2018-12-13T05:59:29.605Z,88
2018-12-13T06:00:30.041Z,88
2018-12-13T06:01:39.871Z,88
2018-12-13T06:02:29.638Z,88
2018-12-13T06:03:30.089Z,88
2018-12-13T06:04:29.653Z,88
2018-12-13T06:05:30.063Z,88
2018-12-13T06:06:29.641Z,88
2018-12-13T06:07:29.677Z,88
2018-12-13T06:08:29.618Z,88
2018-12-13T06:09:29.655Z,88
2018-12-13T06:10:29.695Z,88
2018-12-13T06:11:29.670Z,88
2018-12-13T06:12:29.842Z,88
2018-12-13T06:13:30.068Z,88
2018-12-13T06:14:30.105Z,88
2018-12-13T06:15:30.085Z,88
2018-12-13T06:16:29.685Z,88
2018-12-13T06:17:29.643Z,88
2018-12-13T06:18:29.650Z,88
2018-12-13T06:19:29.944Z,88
2018-12-13T06:20:30.095Z,88
2018-12-13T06:21:29.638Z,88
2018-12-13T06:22:29.888Z,88
2018-12-13T06:23:30.126Z,88
2018-12-13T06:24:29.916Z,88
2018-12-13T06:25:29.855Z,88
2018-12-13T06:26:29.740Z,89
2018-12-13T06:27:29.860Z,89
2018-12-13T06:28:29.669Z,89
2018-12-13T06:29:29.909Z,89
2018-12-13T06:30:30.572Z,89
2018-12-13T06:31:30.182Z,89
2018-12-13T06:32:30.041Z,89
2018-12-13T06:33:29.746Z,89
2018-12-13T06:34:29.727Z,89
2018-12-13T06:35:29.715Z,89
2018-12-13T06:36:29.768Z,89
2018-12-13T06:37:29.736Z,89
2018-12-13T06:38:30.010Z,89
2018-12-13T06:39:29.743Z,89
2018-12-13T06:40:30.184Z,89
2018-12-13T06:41:29.729Z,89
2018-12-13T06:42:29.967Z,89
2018-12-13T06:43:29.735Z,89
2018-12-13T06:44:29.783Z,89
2018-12-13T06:45:30.004Z,89
2018-12-13T06:46:30.178Z,89
2018-12-13T06:47:29.743Z,89
2018-12-13T06:48:30.168Z,89
2018-12-13T06:49:30.197Z,89
2018-12-13T06:50:29.765Z,89
2018-12-13T06:51:29.719Z,89
2018-12-13T06:52:29.724Z,88
2018-12-13T06:53:30.211Z,88
2018-12-13T06:54:30.058Z,88
2018-12-13T06:55:29.786Z,88
2018-12-13T06:56:30.883Z,88
2018-12-13T06:57:29.700Z,88
2018-12-13T06:58:29.747Z,88
2018-12-13T06:59:29.818Z,88
2018-12-13T07:00:29.771Z,88
2018-12-13T07:01:30.182Z,88
2018-12-13T07:02:29.787Z,88
2018-12-13T07:03:29.953Z,88
2018-12-13T07:04:30.025Z,88
2018-12-13T07:05:29.774Z,88
2018-12-13T07:06:46.221Z,88
2018-12-13T07:07:30.189Z,88
2018-12-13T07:08:29.825Z,88
2018-12-13T07:09:29.736Z,88
2018-12-13T07:10:30.070Z,88
2018-12-13T07:11:29.826Z,88
2018-12-13T07:12:30.500Z,88
2018-12-13T07:13:29.925Z,88
2018-12-13T07:14:29.845Z,88
2018-12-13T07:15:29.969Z,88
2018-12-13T07:16:30.622Z,88
2018-12-13T07:17:30.304Z,88
2018-12-13T07:18:30.267Z,88
2018-12-13T07:19:29.741Z,88
2018-12-13T07:20:30.064Z,88
2018-12-13T07:21:29.774Z,88
2018-12-13T07:22:30.811Z,88
2018-12-13T07:23:30.236Z,88
2018-12-13T07:24:30.073Z,88
2018-12-13T07:25:30.034Z,88
2018-12-13T07:26:30.031Z,88
2018-12-13T07:27:30.166Z,88
2018-12-13T07:28:30.889Z,88
2018-12-13T07:29:29.827Z,88
2018-12-13T07:30:29.860Z,88
2018-12-13T07:31:29.793Z,88
2018-12-13T07:32:30.385Z,88
2018-12-13T07:33:29.839Z,88
2018-12-13T07:34:30.021Z,88
2018-12-13T07:35:29.821Z,88
2018-12-13T07:36:29.875Z,88
2018-12-13T07:37:29.831Z,88
2018-12-13T07:38:30.129Z,88
2018-12-13T07:39:30.024Z,88
2018-12-13T07:40:29.892Z,88
2018-12-13T07:41:30.047Z,88
2018-12-13T07:42:30.901Z,88
2018-12-13T07:43:29.839Z,88
2018-12-13T07:44:31.048Z,88
2018-12-13T07:45:31.471Z,88
2018-12-13T07:46:30.957Z,88
2018-12-13T07:47:29.835Z,88
2018-12-13T07:48:29.863Z,88
2018-12-13T07:49:29.840Z,88
2018-12-13T07:50:30.403Z,88
2018-12-13T07:51:30.310Z,88
2018-12-13T07:52:30.312Z,88
2018-12-13T07:53:29.883Z,88
2018-12-13T07:54:29.893Z,88
2018-12-13T07:55:30.051Z,88
2018-12-13T07:56:30.096Z,88
2018-12-13T07:57:29.856Z,88
2018-12-13T07:58:29.919Z,88
2018-12-13T07:59:30.054Z,88
2018-12-13T08:00:30.398Z,88
2018-12-13T08:01:29.886Z,88
2018-12-13T08:02:29.909Z,88
2018-12-13T08:03:29.842Z,88
2018-12-13T08:04:29.875Z,88
2018-12-13T08:05:29.854Z,88
2018-12-13T08:06:30.982Z,88
2018-12-13T08:07:29.856Z,88
2018-12-13T08:08:29.990Z,88
2018-12-13T08:09:31.338Z,88
2018-12-13T08:10:30.255Z,88
2018-12-13T08:11:30.332Z,88
2018-12-13T08:12:30.108Z,88
2018-12-13T08:13:30.615Z,88
2018-12-13T08:14:29.910Z,88
2018-12-13T08:15:29.948Z,88
2018-12-13T08:16:30.668Z,88
2018-12-13T08:17:29.900Z,88
2018-12-13T08:18:29.961Z,88
2018-12-13T08:19:30.295Z,88
2018-12-13T08:20:30.379Z,88
2018-12-13T08:21:29.912Z,88
2018-12-13T08:22:30.017Z,88
2018-12-13T08:23:30.111Z,88
2018-12-13T08:24:29.965Z,88
2018-12-13T08:25:29.907Z,88
2018-12-13T08:26:31.082Z,88
2018-12-13T08:27:29.989Z,88
2018-12-13T08:28:30.370Z,88
2018-12-13T08:29:29.901Z,88
2018-12-13T08:30:29.996Z,88
2018-12-13T08:31:30.169Z,88
2018-12-13T08:32:29.953Z,88
2018-12-13T08:33:30.364Z,88
2018-12-13T08:34:30.182Z,88
2018-12-13T08:35:29.923Z,88
2018-12-13T08:36:30.199Z,88
2018-12-13T08:37:30.411Z,88
2018-12-13T08:38:30.030Z,88
2018-12-13T08:39:29.968Z,87
2018-12-13T08:40:29.982Z,87
2018-12-13T08:41:29.895Z,87
2018-12-13T08:42:30.470Z,87
2018-12-13T08:43:30.092Z,87
2018-12-13T08:44:29.986Z,87
2018-12-13T08:45:30.184Z,87
2018-12-13T08:46:36.348Z,87
2018-12-13T08:47:29.939Z,87
2018-12-13T08:48:31.729Z,87
2018-12-13T08:49:30.311Z,87
2018-12-13T08:50:30.419Z,87
2018-12-13T08:51:30.406Z,86
2018-12-13T08:52:30.229Z,86
2018-12-13T08:53:30.489Z,86
2018-12-13T08:54:30.445Z,86
2018-12-13T08:55:29.958Z,86
2018-12-13T08:56:30.045Z,86
2018-12-13T08:57:30.143Z,86
2018-12-13T08:58:30.389Z,86
2018-12-13T08:59:29.977Z,86
2018-12-13T09:00:30.491Z,86
2018-12-13T09:01:30.380Z,86
2018-12-13T09:02:30.418Z,86
2018-12-13T09:03:30.213Z,86
2018-12-13T09:04:31.008Z,86
2018-12-13T09:05:30.034Z,86
2018-12-13T09:06:30.504Z,86
2018-12-13T09:07:30.024Z,86
2018-12-13T09:08:33.450Z,86
2018-12-13T09:09:31.090Z,86
2018-12-13T09:10:31.205Z,86
2018-12-13T09:11:30.494Z,86
2018-12-13T09:12:38.269Z,86
2018-12-13T09:13:34.838Z,86
2018-12-13T09:14:30.089Z,86
2018-12-13T09:15:31.849Z,86
2018-12-13T09:16:31.264Z,86
2018-12-13T09:17:30.486Z,86
2018-12-13T09:18:30.017Z,86
2018-12-13T09:19:30.029Z,85
2018-12-13T09:20:29.999Z,85
2018-12-13T09:21:30.510Z,85
2018-12-13T09:22:30.495Z,85
2018-12-13T09:23:30.229Z,85
2018-12-13T09:24:30.435Z,85
2018-12-13T09:25:30.248Z,85
2018-12-13T09:26:30.047Z,85
2018-12-13T09:27:29.999Z,85
2018-12-13T09:28:30.050Z,85
2018-12-13T09:29:30.260Z,85
2018-12-13T09:30:30.367Z,85
2018-12-13T09:31:30.487Z,85
2018-12-13T09:32:32.904Z,85
2018-12-13T09:33:30.014Z,85
2018-12-13T09:34:30.642Z,85
2018-12-13T09:35:29.987Z,85
2018-12-13T09:36:31.311Z,85
2018-12-13T09:37:31.391Z,85
2018-12-13T09:38:30.107Z,85
2018-12-13T09:39:31.077Z,85
2018-12-13T09:40:30.701Z,85
2018-12-13T09:41:35.587Z,85
2018-12-13T09:42:30.034Z,85
2018-12-13T09:43:30.068Z,85
2018-12-13T09:44:30.233Z,85
2018-12-13T09:45:30.067Z,84
2018-12-13T09:46:30.459Z,84
2018-12-13T09:47:30.347Z,84
2018-12-13T09:48:30.124Z,84
2018-12-13T09:49:30.076Z,84
2018-12-13T09:50:30.196Z,84
2018-12-13T09:51:30.586Z,84
2018-12-13T09:52:30.065Z,84
2018-12-13T09:53:30.142Z,84
2018-12-13T09:54:30.120Z,84
2018-12-13T09:55:30.159Z,84
2018-12-13T09:56:30.673Z,84
2018-12-13T09:57:31.690Z,84
2018-12-13T09:58:30.091Z,84
2018-12-13T09:59:30.490Z,84
2018-12-13T10:00:30.234Z,84
2018-12-13T10:01:30.499Z,84
2018-12-13T10:02:32.091Z,84
2018-12-13T10:03:30.268Z,84
2018-12-13T10:04:30.041Z,84
2018-12-13T10:05:30.514Z,84
2018-12-13T10:06:30.325Z,84
2018-12-13T10:07:30.151Z,84
2018-12-13T10:08:30.305Z,84
2018-12-13T10:09:30.663Z,84
2018-12-13T10:10:30.435Z,84
2018-12-13T10:11:30.306Z,84
2018-12-13T10:12:31.165Z,84
2018-12-13T10:13:30.322Z,84
2018-12-13T10:14:30.190Z,84
2018-12-13T10:15:31.830Z,84
2018-12-13T10:16:30.141Z,84
2018-12-13T10:17:30.173Z,84
2018-12-13T10:18:31.646Z,84
2018-12-13T10:19:30.055Z,84
2018-12-13T10:20:30.098Z,84
2018-12-13T10:21:30.305Z,84
2018-12-13T10:22:30.117Z,84
2018-12-13T10:23:30.574Z,84
2018-12-13T10:24:30.112Z,84
2018-12-13T10:25:30.323Z,84
2018-12-13T10:26:30.552Z,84
2018-12-13T10:27:30.300Z,84
2018-12-13T10:28:30.330Z,84
2018-12-13T10:29:30.551Z,84
2018-12-13T10:30:30.145Z,83
2018-12-13T10:31:30.141Z,83
2018-12-13T10:32:30.148Z,83
2018-12-13T10:33:30.170Z,83
2018-12-13T10:34:30.786Z,83
2018-12-13T10:35:31.436Z,83
2018-12-13T10:36:30.684Z,83
2018-12-13T10:37:30.281Z,83
2018-12-13T10:38:30.724Z,83
2018-12-13T10:39:30.225Z,83
2018-12-13T10:40:33.767Z,83
2018-12-13T10:41:30.154Z,83
2018-12-13T10:42:30.356Z,83
2018-12-13T10:43:31.278Z,83
2018-12-13T10:44:30.590Z,83
2018-12-13T10:45:30.221Z,83
2018-12-13T10:46:30.308Z,83
2018-12-13T10:47:35.308Z,83
2018-12-13T10:48:30.203Z,83
2018-12-13T10:49:30.227Z,83
2018-12-13T10:50:31.238Z,83
2018-12-13T10:51:30.396Z,83
2018-12-13T10:52:30.240Z,83
2018-12-13T10:53:30.427Z,83
2018-12-13T10:54:30.194Z,83
2018-12-13T10:55:30.365Z,83
2018-12-13T10:56:30.248Z,83
2018-12-13T10:57:30.857Z,83
2018-12-13T10:58:30.409Z,83
2018-12-13T10:59:30.263Z,83
2018-12-13T11:00:30.209Z,83
2018-12-13T11:01:30.257Z,83
2018-12-13T11:02:30.241Z,83
2018-12-13T11:03:30.164Z,83
2018-12-13T11:04:30.173Z,83
2018-12-13T11:05:30.190Z,83
2018-12-13T11:06:30.746Z,83
2018-12-13T11:07:32.199Z,83
2018-12-13T11:08:30.314Z,83
2018-12-13T11:09:30.188Z,83
2018-12-13T11:10:30.686Z,83
2018-12-13T11:11:30.911Z,83
2018-12-13T11:12:30.299Z,83
2018-12-13T11:13:30.392Z,83
2018-12-13T11:14:30.634Z,83
2018-12-13T11:15:30.418Z,83
2018-12-13T11:16:30.183Z,83
2018-12-13T11:17:30.257Z,83
2018-12-13T11:18:30.431Z,83
2018-12-13T11:19:30.547Z,82
2018-12-13T11:20:30.503Z,82
2018-12-13T11:21:30.256Z,83
2018-12-13T11:22:30.280Z,83
2018-12-13T11:23:30.976Z,83
2018-12-13T11:24:30.475Z,83
2018-12-13T11:25:30.744Z,83
2018-12-13T11:26:30.343Z,82
2018-12-13T11:27:30.259Z,82
2018-12-13T11:28:30.501Z,82
2018-12-13T11:29:30.683Z,82
2018-12-13T11:30:30.702Z,82
2018-12-13T11:31:31.987Z,82
2018-12-13T11:32:30.735Z,82
2018-12-13T11:33:31.510Z,82
2018-12-13T11:34:30.290Z,82
2018-12-13T11:35:30.497Z,82
2018-12-13T11:36:30.258Z,82
2018-12-13T11:37:30.575Z,82
2018-12-13T11:38:31.323Z,82
2018-12-13T11:39:30.665Z,82
2018-12-13T11:40:30.282Z,82
2018-12-13T11:41:30.975Z,82
2018-12-13T11:42:30.852Z,82
2018-12-13T11:43:30.668Z,82
2018-12-13T11:44:30.994Z,82
2018-12-13T11:45:30.428Z,82
2018-12-13T11:46:30.225Z,82
2018-12-13T11:47:30.277Z,82
2018-12-13T11:48:30.681Z,82
2018-12-13T11:49:30.723Z,82
2018-12-13T11:50:30.301Z,82
2018-12-13T11:51:30.822Z,82
2018-12-13T11:52:30.309Z,82
2018-12-13T11:53:30.791Z,82
2018-12-13T11:54:30.302Z,82
2018-12-13T11:55:30.305Z,82
2018-12-13T11:56:30.342Z,82
2018-12-13T11:57:30.309Z,82
2018-12-13T11:58:30.597Z,82
2018-12-13T11:59:30.576Z,82
2018-12-13T12:00:30.756Z,82
2018-12-13T12:01:30.522Z,82
2018-12-13T12:02:30.480Z,82
2018-12-13T12:03:30.370Z,82
2018-12-13T12:04:30.341Z,81
2018-12-13T12:05:30.599Z,81
2018-12-13T12:06:30.579Z,81
2018-12-13T12:07:30.381Z,81
2018-12-13T12:08:30.549Z,81
2018-12-13T12:09:30.362Z,81
2018-12-13T12:10:30.319Z,81
2018-12-13T12:11:30.442Z,81
2018-12-13T12:12:30.739Z,81
2018-12-13T12:13:30.736Z,81
2018-12-13T12:14:30.761Z,81
2018-12-13T12:15:30.333Z,81
2018-12-13T12:16:34.204Z,81
2018-12-13T12:17:33.530Z,81
2018-12-13T12:18:34.287Z,81
2018-12-13T12:19:30.735Z,81
2018-12-13T12:20:30.891Z,81
2018-12-13T12:21:30.378Z,81
2018-12-13T12:22:30.454Z,81
2018-12-13T12:23:30.903Z,81
2018-12-13T12:24:30.302Z,81
2018-12-13T12:25:32.794Z,81
2018-12-13T12:26:30.731Z,81
2018-12-13T12:27:46.559Z,81
2018-12-13T12:28:40.482Z,81
2018-12-13T12:29:41.408Z,81
2018-12-13T12:30:42.340Z,80
2018-12-13T12:31:51.251Z,80
2018-12-13T12:32:39.757Z,80
2018-12-13T12:33:43.460Z,80
2018-12-13T12:34:40.795Z,80
2018-12-13T12:35:35.265Z,80
2018-12-13T12:36:39.224Z,80
2018-12-13T12:37:39.109Z,80
2018-12-13T12:38:44.682Z,80
2018-12-13T12:39:42.964Z,80
2018-12-13T12:40:46.767Z,80
2018-12-13T12:41:52.705Z,80
2018-12-13T12:42:55.295Z,80
2018-12-13T12:43:57.446Z,80
2018-12-13T12:44:51.330Z,80
2018-12-13T12:45:39.028Z,80
2018-12-13T12:46:31.739Z,80
2018-12-13T12:47:51.758Z,80
2018-12-13T12:48:31.246Z,80
2018-12-13T12:49:30.803Z,80
2018-12-13T12:50:30.614Z,80
2018-12-13T12:51:30.438Z,80
2018-12-13T12:52:30.351Z,80
2018-12-13T12:53:30.706Z,80
2018-12-13T12:54:30.888Z,80
2018-12-13T12:55:30.437Z,80
2018-12-13T12:56:30.437Z,80
2018-12-13T12:57:30.627Z,80
2018-12-13T12:58:30.460Z,80
2018-12-13T12:59:30.622Z,80
2018-12-13T13:00:30.482Z,80
2018-12-13T13:01:30.712Z,80
2018-12-13T13:02:31.103Z,80
2018-12-13T13:03:30.499Z,79
2018-12-13T13:04:31.280Z,79
2018-12-13T13:05:30.421Z,79
2018-12-13T13:06:30.832Z,79
2018-12-13T13:07:30.625Z,79
2018-12-13T13:08:30.513Z,79
2018-12-13T13:09:30.426Z,79
2018-12-13T13:10:30.432Z,79
2018-12-13T13:11:30.830Z,79
2018-12-13T13:12:31.106Z,79
2018-12-13T13:13:30.634Z,79
2018-12-13T13:14:30.383Z,79
2018-12-13T13:15:36.476Z,79
2018-12-13T13:16:30.609Z,79
2018-12-13T13:17:39.823Z,79
2018-12-13T13:18:31.264Z,79
2018-12-13T13:19:33.011Z,79
2018-12-13T13:20:30.495Z,79
2018-12-13T13:21:31.740Z,79
2018-12-13T13:22:30.691Z,79
2018-12-13T13:23:30.549Z,79
2018-12-13T13:24:30.424Z,79
2018-12-13T13:25:30.832Z,79
2018-12-13T13:26:32.111Z,78
2018-12-13T13:27:31.089Z,78
2018-12-13T13:28:34.099Z,78
2018-12-13T13:29:30.779Z,78
2018-12-13T13:30:31.198Z,78
2018-12-13T13:31:35.787Z,78
2018-12-13T13:32:31.200Z,78
2018-12-13T13:33:30.659Z,79
2018-12-13T13:34:30.480Z,79
2018-12-13T13:35:30.480Z,79
2018-12-13T13:36:31.256Z,79
2018-12-13T13:37:30.479Z,79
2018-12-13T13:38:31.000Z,79
2018-12-13T13:39:31.486Z,78
2018-12-13T13:40:30.972Z,78
2018-12-13T13:41:30.443Z,78
2018-12-13T13:42:30.893Z,78
2018-12-13T13:43:30.711Z,78
2018-12-13T13:44:30.941Z,78
2018-12-13T13:45:31.169Z,78
2018-12-13T13:46:30.685Z,78
2018-12-13T13:47:31.589Z,78
2018-12-13T13:48:31.035Z,78
2018-12-13T13:49:31.795Z,78
2018-12-13T13:50:47.981Z,78
2018-12-13T13:51:47.048Z,78
2018-12-13T13:52:34.521Z,78
2018-12-13T13:53:39.195Z,78
2018-12-13T13:54:44.178Z,78
2018-12-13T13:55:40.834Z,78
2018-12-13T13:56:46.046Z,78
2018-12-13T13:57:41.088Z,78
2018-12-13T13:58:44.929Z,78
2018-12-13T13:59:42.451Z,78
2018-12-13T14:00:45.405Z,78
2018-12-13T14:01:42.407Z,78
2018-12-13T14:02:40.776Z,78
2018-12-13T14:03:40.806Z,78
2018-12-13T14:04:42.471Z,78
2018-12-13T14:05:30.444Z,78
2018-12-13T14:06:30.522Z,77
2018-12-13T14:07:30.705Z,77
2018-12-13T14:08:30.538Z,77
2018-12-13T14:09:30.952Z,77
2018-12-13T14:10:30.569Z,77
2018-12-13T14:11:30.972Z,77
2018-12-13T14:12:30.541Z,77
2018-12-13T14:13:30.995Z,77
2018-12-13T14:14:30.526Z,77
2018-12-13T14:15:30.557Z,77